sensor_id;sensor_type;location;lat;lon;timestamp;P1;durP1;ratioP1;P2;durP2;ratioP2
64375;SDS011;50700;55.416;12.952;2022-10-22T00:00:48;32.72;;;16.30;;
64375;SDS011;50700;55.416;12.952;2022-10-22T00:03:14;28.58;;;16.40;;
64375;SDS011;50700;55.416;12.952;2022-10-22T00:05:41;28.00;;;14.65;;
64375;SDS011;50700;55.416;12.952;2022-10-22T00:08:07;30.23;;;15.73;;
64375;SDS011;50700;55.416;12.952;2022-10-22T00:10:35;28.75;;;15.18;;
64375;SDS011;50700;55.416;12.952;2022-10-22T00:13:02;29.52;;;15.45;;
64375;SDS011;50700;55.416;12.952;2022-10-22T00:15:29;33.67;;;15.60;;
64375;SDS011;50700;55.416;12.952;2022-10-22T00:17:55;27.85;;;14.40;;
64375;SDS011;50700;55.416;12.952;2022-10-22T00:20:21;29.38;;;15.82;;
64375;SDS011;50700;55.416;12.952;2022-10-22T00:22:47;31.65;;;16.50;;
64375;SDS011;50700;55.416;12.952;2022-10-22T00:25:14;29.98;;;15.15;;
64375;SDS011;50700;55.416;12.952;2022-10-22T00:27:40;32.50;;;15.95;;
64375;SDS011;50700;55.416;12.952;2022-10-22T00:30:06;28.67;;;14.90;;
64375;SDS011;50700;55.416;12.952;2022-10-22T00:32:33;33.42;;;15.85;;
64375;SDS011;50700;55.416;12.952;2022-10-22T00:34:59;31.95;;;15.02;;
64375;SDS011;50700;55.416;12.952;2022-10-22T00:37:25;27.45;;;14.57;;
64375;SDS011;50700;55.416;12.952;2022-10-22T00:39:51;30.30;;;13.75;;
64375;SDS011;50700;55.416;12.952;2022-10-22T00:42:22;28.98;;;15.38;;
64375;SDS011;50700;55.416;12.952;2022-10-22T00:47:32;27.92;;;14.30;;
64375;SDS011;50700;55.416;12.952;2022-10-22T00:49:59;26.75;;;14.68;;
64375;SDS011;50700;55.416;12.952;2022-10-22T00:52:25;23.80;;;13.27;;
64375;SDS011;50700;55.416;12.952;2022-10-22T00:54:52;28.50;;;14.38;;
64375;SDS011;50700;55.416;12.952;2022-10-22T00:57:18;26.25;;;14.52;;
64375;SDS011;50700;55.416;12.952;2022-10-22T00:59:45;24.98;;;13.52;;
64375;SDS011;50700;55.416;12.952;2022-10-22T01:02:11;24.70;;;13.90;;
64375;SDS011;50700;55.416;12.952;2022-10-22T01:04:38;25.95;;;15.05;;
64375;SDS011;50700;55.416;12.952;2022-10-22T01:07:04;26.45;;;14.68;;
64375;SDS011;50700;55.416;12.952;2022-10-22T01:10:33;30.73;;;14.63;;
64375;SDS011;50700;55.416;12.952;2022-10-22T01:15:05;29.20;;;14.80;;
64375;SDS011;50700;55.416;12.952;2022-10-22T01:21:07;28.42;;;15.05;;
64375;SDS011;50700;55.416;12.952;2022-10-22T01:23:07;26.40;;;13.35;;
64375;SDS011;50700;55.416;12.952;2022-10-22T01:25:47;26.27;;;14.27;;
64375;SDS011;50700;55.416;12.952;2022-10-22T01:28:25;25.10;;;13.82;;
64375;SDS011;50700;55.416;12.952;2022-10-22T01:30:53;31.38;;;15.20;;
64375;SDS011;50700;55.416;12.952;2022-10-22T01:33:21;31.15;;;15.05;;
64375;SDS011;50700;55.416;12.952;2022-10-22T01:35:48;33.45;;;15.68;;
64375;SDS011;50700;55.416;12.952;2022-10-22T01:38:17;31.55;;;15.38;;
64375;SDS011;50700;55.416;12.952;2022-10-22T01:40:44;26.10;;;14.52;;
64375;SDS011;50700;55.416;12.952;2022-10-22T01:43:11;34.83;;;14.73;;
64375;SDS011;50700;55.416;12.952;2022-10-22T01:45:39;27.83;;;15.55;;
64375;SDS011;50700;55.416;12.952;2022-10-22T01:58:21;28.30;;;15.60;;
64375;SDS011;50700;55.416;12.952;2022-10-22T02:03:44;31.95;;;15.48;;
64375;SDS011;50700;55.416;12.952;2022-10-22T02:06:14;32.43;;;16.50;;
64375;SDS011;50700;55.416;12.952;2022-10-22T02:08:42;29.65;;;16.45;;
64375;SDS011;50700;55.416;12.952;2022-10-22T02:11:08;27.98;;;14.43;;
64375;SDS011;50700;55.416;12.952;2022-10-22T02:13:38;29.55;;;14.80;;
64375;SDS011;50700;55.416;12.952;2022-10-22T02:16:05;32.00;;;14.07;;
64375;SDS011;50700;55.416;12.952;2022-10-22T02:18:32;31.35;;;14.90;;
64375;SDS011;50700;55.416;12.952;2022-10-22T02:21:00;29.40;;;15.85;;
64375;SDS011;50700;55.416;12.952;2022-10-22T02:23:26;28.50;;;14.77;;
64375;SDS011;50700;55.416;12.952;2022-10-22T02:25:55;25.67;;;13.90;;
64375;SDS011;50700;55.416;12.952;2022-10-22T02:31:23;27.73;;;13.88;;
64375;SDS011;50700;55.416;12.952;2022-10-22T02:33:49;29.20;;;16.00;;
64375;SDS011;50700;55.416;12.952;2022-10-22T02:36:17;26.35;;;14.57;;
64375;SDS011;50700;55.416;12.952;2022-10-22T02:38:44;28.92;;;14.73;;
64375;SDS011;50700;55.416;12.952;2022-10-22T02:41:11;28.35;;;14.32;;
64375;SDS011;50700;55.416;12.952;2022-10-22T02:43:40;27.67;;;14.27;;
64375;SDS011;50700;55.416;12.952;2022-10-22T02:46:08;25.60;;;13.55;;
64375;SDS011;50700;55.416;12.952;2022-10-22T02:48:34;22.80;;;13.25;;
64375;SDS011;50700;55.416;12.952;2022-10-22T02:51:00;26.55;;;13.80;;
64375;SDS011;50700;55.416;12.952;2022-10-22T02:53:26;23.38;;;13.30;;
64375;SDS011;50700;55.416;12.952;2022-10-22T02:55:53;26.27;;;14.45;;
64375;SDS011;50700;55.416;12.952;2022-10-22T02:58:19;26.80;;;13.50;;
64375;SDS011;50700;55.416;12.952;2022-10-22T03:00:45;29.00;;;15.27;;
64375;SDS011;50700;55.416;12.952;2022-10-22T03:03:11;25.60;;;13.70;;
64375;SDS011;50700;55.416;12.952;2022-10-22T03:05:37;29.13;;;14.50;;
64375;SDS011;50700;55.416;12.952;2022-10-22T03:08:03;30.30;;;14.65;;
64375;SDS011;50700;55.416;12.952;2022-10-22T03:10:30;32.75;;;15.98;;
64375;SDS011;50700;55.416;12.952;2022-10-22T03:12:56;28.85;;;14.95;;
64375;SDS011;50700;55.416;12.952;2022-10-22T03:15:22;34.80;;;17.20;;
64375;SDS011;50700;55.416;12.952;2022-10-22T03:17:48;29.67;;;15.30;;
64375;SDS011;50700;55.416;12.952;2022-10-22T03:20:15;31.48;;;16.15;;
64375;SDS011;50700;55.416;12.952;2022-10-22T03:22:41;32.38;;;15.95;;
64375;SDS011;50700;55.416;12.952;2022-10-22T03:25:09;30.30;;;15.88;;
64375;SDS011;50700;55.416;12.952;2022-10-22T03:27:37;29.63;;;15.65;;
64375;SDS011;50700;55.416;12.952;2022-10-22T03:30:04;33.85;;;17.90;;
64375;SDS011;50700;55.416;12.952;2022-10-22T03:32:31;29.60;;;16.05;;
64375;SDS011;50700;55.416;12.952;2022-10-22T03:34:57;34.55;;;17.10;;
64375;SDS011;50700;55.416;12.952;2022-10-22T03:37:24;31.88;;;16.40;;
64375;SDS011;50700;55.416;12.952;2022-10-22T03:39:51;32.28;;;15.63;;
64375;SDS011;50700;55.416;12.952;2022-10-22T03:42:19;31.48;;;16.23;;
64375;SDS011;50700;55.416;12.952;2022-10-22T03:44:45;30.38;;;15.77;;
64375;SDS011;50700;55.416;12.952;2022-10-22T03:47:11;34.42;;;16.55;;
64375;SDS011;50700;55.416;12.952;2022-10-22T03:49:37;37.10;;;17.92;;
64375;SDS011;50700;55.416;12.952;2022-10-22T03:52:05;34.70;;;17.05;;
64375;SDS011;50700;55.416;12.952;2022-10-22T03:54:31;32.13;;;15.88;;
64375;SDS011;50700;55.416;12.952;2022-10-22T03:56:58;34.10;;;16.35;;
64375;SDS011;50700;55.416;12.952;2022-10-22T03:59:24;34.58;;;16.60;;
64375;SDS011;50700;55.416;12.952;2022-10-22T04:01:50;34.13;;;16.65;;
64375;SDS011;50700;55.416;12.952;2022-10-22T04:04:16;39.15;;;17.73;;
64375;SDS011;50700;55.416;12.952;2022-10-22T04:06:42;36.17;;;16.63;;
64375;SDS011;50700;55.416;12.952;2022-10-22T04:09:08;31.25;;;15.10;;
64375;SDS011;50700;55.416;12.952;2022-10-22T04:11:34;36.80;;;16.70;;
64375;SDS011;50700;55.416;12.952;2022-10-22T04:14:01;34.70;;;16.27;;
64375;SDS011;50700;55.416;12.952;2022-10-22T04:16:27;35.38;;;15.88;;
64375;SDS011;50700;55.416;12.952;2022-10-22T04:18:56;28.67;;;15.57;;
64375;SDS011;50700;55.416;12.952;2022-10-22T04:21:23;34.42;;;16.02;;
64375;SDS011;50700;55.416;12.952;2022-10-22T04:23:50;31.13;;;15.80;;
64375;SDS011;50700;55.416;12.952;2022-10-22T04:26:17;33.60;;;16.75;;
64375;SDS011;50700;55.416;12.952;2022-10-22T04:28:44;28.58;;;14.95;;
64375;SDS011;50700;55.416;12.952;2022-10-22T04:31:11;31.08;;;15.10;;
64375;SDS011;50700;55.416;12.952;2022-10-22T04:33:37;30.88;;;14.50;;
64375;SDS011;50700;55.416;12.952;2022-10-22T04:36:08;31.10;;;15.88;;
64375;SDS011;50700;55.416;12.952;2022-10-22T04:38:36;30.73;;;14.57;;
64375;SDS011;50700;55.416;12.952;2022-10-22T04:43:35;28.85;;;14.77;;
64375;SDS011;50700;55.416;12.952;2022-10-22T04:46:01;26.95;;;14.85;;
64375;SDS011;50700;55.416;12.952;2022-10-22T04:48:27;27.52;;;14.02;;
64375;SDS011;50700;55.416;12.952;2022-10-22T04:50:55;30.83;;;15.55;;
64375;SDS011;50700;55.416;12.952;2022-10-22T04:53:21;32.60;;;15.30;;
64375;SDS011;50700;55.416;12.952;2022-10-22T04:55:47;25.77;;;14.23;;
64375;SDS011;50700;55.416;12.952;2022-10-22T04:58:14;30.83;;;16.58;;
64375;SDS011;50700;55.416;12.952;2022-10-22T05:00:40;25.05;;;14.40;;
64375;SDS011;50700;55.416;12.952;2022-10-22T05:03:06;26.60;;;13.57;;
64375;SDS011;50700;55.416;12.952;2022-10-22T05:05:32;25.98;;;13.45;;
64375;SDS011;50700;55.416;12.952;2022-10-22T05:07:58;25.95;;;14.40;;
64375;SDS011;50700;55.416;12.952;2022-10-22T05:10:24;27.13;;;14.50;;
64375;SDS011;50700;55.416;12.952;2022-10-22T05:12:50;22.33;;;12.40;;
64375;SDS011;50700;55.416;12.952;2022-10-22T05:15:17;25.88;;;13.30;;
64375;SDS011;50700;55.416;12.952;2022-10-22T05:17:43;27.90;;;14.63;;
64375;SDS011;50700;55.416;12.952;2022-10-22T05:20:09;27.65;;;14.35;;
64375;SDS011;50700;55.416;12.952;2022-10-22T05:22:36;34.50;;;16.02;;
64375;SDS011;50700;55.416;12.952;2022-10-22T05:25:02;31.27;;;15.45;;
64375;SDS011;50700;55.416;12.952;2022-10-22T05:27:28;24.17;;;13.35;;
64375;SDS011;50700;55.416;12.952;2022-10-22T05:29:54;24.27;;;14.57;;
64375;SDS011;50700;55.416;12.952;2022-10-22T05:32:20;27.65;;;14.70;;
64375;SDS011;50700;55.416;12.952;2022-10-22T05:34:47;27.75;;;15.35;;
64375;SDS011;50700;55.416;12.952;2022-10-22T05:37:13;35.33;;;15.55;;
64375;SDS011;50700;55.416;12.952;2022-10-22T05:39:39;32.90;;;16.80;;
64375;SDS011;50700;55.416;12.952;2022-10-22T05:42:05;30.10;;;15.65;;
64375;SDS011;50700;55.416;12.952;2022-10-22T05:44:32;33.90;;;15.80;;
64375;SDS011;50700;55.416;12.952;2022-10-22T05:46:58;29.58;;;16.60;;
64375;SDS011;50700;55.416;12.952;2022-10-22T05:49:24;29.05;;;14.70;;
64375;SDS011;50700;55.416;12.952;2022-10-22T05:51:50;33.38;;;15.35;;
64375;SDS011;50700;55.416;12.952;2022-10-22T05:54:17;30.00;;;14.98;;
64375;SDS011;50700;55.416;12.952;2022-10-22T05:56:44;31.10;;;14.50;;
64375;SDS011;50700;55.416;12.952;2022-10-22T05:59:10;30.80;;;15.48;;
64375;SDS011;50700;55.416;12.952;2022-10-22T06:01:37;26.80;;;14.43;;
64375;SDS011;50700;55.416;12.952;2022-10-22T06:04:05;29.33;;;14.52;;
64375;SDS011;50700;55.416;12.952;2022-10-22T06:09:12;30.55;;;15.13;;
64375;SDS011;50700;55.416;12.952;2022-10-22T06:11:39;28.80;;;14.95;;
64375;SDS011;50700;55.416;12.952;2022-10-22T06:14:05;29.45;;;15.60;;
64375;SDS011;50700;55.416;12.952;2022-10-22T06:16:32;33.58;;;15.80;;
64375;SDS011;50700;55.416;12.952;2022-10-22T06:18:58;31.80;;;16.02;;
64375;SDS011;50700;55.416;12.952;2022-10-22T06:21:26;38.60;;;17.90;;
64375;SDS011;50700;55.416;12.952;2022-10-22T06:23:54;35.03;;;17.23;;
64375;SDS011;50700;55.416;12.952;2022-10-22T06:26:20;32.50;;;15.63;;
64375;SDS011;50700;55.416;12.952;2022-10-22T06:28:47;37.90;;;16.92;;
64375;SDS011;50700;55.416;12.952;2022-10-22T06:31:13;34.60;;;16.23;;
64375;SDS011;50700;55.416;12.952;2022-10-22T06:33:39;34.25;;;16.10;;
64375;SDS011;50700;55.416;12.952;2022-10-22T06:36:09;36.47;;;17.63;;
64375;SDS011;50700;55.416;12.952;2022-10-22T06:38:36;39.55;;;17.45;;
64375;SDS011;50700;55.416;12.952;2022-10-22T06:41:03;34.80;;;17.55;;
64375;SDS011;50700;55.416;12.952;2022-10-22T06:43:29;40.05;;;19.00;;
64375;SDS011;50700;55.416;12.952;2022-10-22T06:45:59;35.92;;;18.42;;
64375;SDS011;50700;55.416;12.952;2022-10-22T06:48:26;43.55;;;19.75;;
64375;SDS011;50700;55.416;12.952;2022-10-22T06:50:52;41.85;;;18.60;;
64375;SDS011;50700;55.416;12.952;2022-10-22T06:53:18;42.38;;;19.00;;
64375;SDS011;50700;55.416;12.952;2022-10-22T06:55:45;51.05;;;20.20;;
64375;SDS011;50700;55.416;12.952;2022-10-22T06:58:11;45.17;;;19.13;;
64375;SDS011;50700;55.416;12.952;2022-10-22T07:00:37;47.20;;;20.05;;
64375;SDS011;50700;55.416;12.952;2022-10-22T07:03:03;46.30;;;19.67;;
64375;SDS011;50700;55.416;12.952;2022-10-22T07:05:32;48.42;;;19.15;;
64375;SDS011;50700;55.416;12.952;2022-10-22T07:07:58;42.78;;;18.92;;
64375;SDS011;50700;55.416;12.952;2022-10-22T07:10:25;54.42;;;20.92;;
64375;SDS011;50700;55.416;12.952;2022-10-22T07:12:51;56.22;;;20.20;;
64375;SDS011;50700;55.416;12.952;2022-10-22T07:15:17;51.78;;;20.77;;
64375;SDS011;50700;55.416;12.952;2022-10-22T07:17:43;60.30;;;22.05;;
64375;SDS011;50700;55.416;12.952;2022-10-22T07:20:09;59.17;;;21.55;;
64375;SDS011;50700;55.416;12.952;2022-10-22T07:22:36;57.75;;;22.52;;
64375;SDS011;50700;55.416;12.952;2022-10-22T07:25:03;56.95;;;22.55;;
64375;SDS011;50700;55.416;12.952;2022-10-22T07:27:29;58.63;;;22.13;;
64375;SDS011;50700;55.416;12.952;2022-10-22T07:29:55;64.28;;;24.25;;
64375;SDS011;50700;55.416;12.952;2022-10-22T07:32:25;73.10;;;25.02;;
64375;SDS011;50700;55.416;12.952;2022-10-22T07:34:51;65.90;;;24.10;;
64375;SDS011;50700;55.416;12.952;2022-10-22T07:37:17;65.30;;;23.98;;
64375;SDS011;50700;55.416;12.952;2022-10-22T07:39:47;62.90;;;22.35;;
64375;SDS011;50700;55.416;12.952;2022-10-22T07:42:13;66.00;;;23.85;;
64375;SDS011;50700;55.416;12.952;2022-10-22T07:44:39;72.95;;;24.60;;
64375;SDS011;50700;55.416;12.952;2022-10-22T07:47:05;70.78;;;23.35;;
64375;SDS011;50700;55.416;12.952;2022-10-22T07:49:32;73.68;;;24.38;;
64375;SDS011;50700;55.416;12.952;2022-10-22T07:51:58;78.78;;;25.58;;
64375;SDS011;50700;55.416;12.952;2022-10-22T07:54:24;72.20;;;24.90;;
64375;SDS011;50700;55.416;12.952;2022-10-22T07:56:50;65.95;;;23.50;;
64375;SDS011;50700;55.416;12.952;2022-10-22T07:59:16;74.07;;;24.23;;
64375;SDS011;50700;55.416;12.952;2022-10-22T08:01:42;75.60;;;25.83;;
64375;SDS011;50700;55.416;12.952;2022-10-22T08:04:10;73.75;;;23.92;;
64375;SDS011;50700;55.416;12.952;2022-10-22T08:06:37;76.10;;;26.05;;
64375;SDS011;50700;55.416;12.952;2022-10-22T08:09:03;72.07;;;23.92;;
64375;SDS011;50700;55.416;12.952;2022-10-22T08:11:29;78.72;;;26.15;;
64375;SDS011;50700;55.416;12.952;2022-10-22T08:13:57;73.85;;;25.17;;
64375;SDS011;50700;55.416;12.952;2022-10-22T08:16:24;67.20;;;23.92;;
64375;SDS011;50700;55.416;12.952;2022-10-22T08:18:50;73.05;;;25.17;;
64375;SDS011;50700;55.416;12.952;2022-10-22T08:21:16;73.38;;;25.45;;
64375;SDS011;50700;55.416;12.952;2022-10-22T08:23:43;85.57;;;26.30;;
64375;SDS011;50700;55.416;12.952;2022-10-22T08:26:09;89.05;;;27.45;;
64375;SDS011;50700;55.416;12.952;2022-10-22T08:28:36;83.80;;;25.40;;
64375;SDS011;50700;55.416;12.952;2022-10-22T08:31:03;81.47;;;26.25;;
64375;SDS011;50700;55.416;12.952;2022-10-22T08:33:29;116.38;;;25.73;;
64375;SDS011;50700;55.416;12.952;2022-10-22T08:35:55;96.47;;;25.35;;
64375;SDS011;50700;55.416;12.952;2022-10-22T08:38:22;74.15;;;25.23;;
64375;SDS011;50700;55.416;12.952;2022-10-22T08:40:50;103.00;;;28.63;;
64375;SDS011;50700;55.416;12.952;2022-10-22T08:48:57;80.82;;;25.52;;
64375;SDS011;50700;55.416;12.952;2022-10-22T08:51:26;86.07;;;26.00;;
64375;SDS011;50700;55.416;12.952;2022-10-22T08:54:01;84.18;;;25.83;;
64375;SDS011;50700;55.416;12.952;2022-10-22T08:56:31;89.22;;;25.73;;
64375;SDS011;50700;55.416;12.952;2022-10-22T08:59:00;91.65;;;25.30;;
64375;SDS011;50700;55.416;12.952;2022-10-22T09:01:31;88.53;;;26.05;;
64375;SDS011;50700;55.416;12.952;2022-10-22T09:06:53;90.28;;;25.55;;
64375;SDS011;50700;55.416;12.952;2022-10-22T09:09:20;99.18;;;25.38;;
64375;SDS011;50700;55.416;12.952;2022-10-22T09:11:50;77.20;;;25.83;;
64375;SDS011;50700;55.416;12.952;2022-10-22T09:14:17;84.30;;;26.33;;
64375;SDS011;50700;55.416;12.952;2022-10-22T09:22:09;81.90;;;25.63;;
64375;SDS011;50700;55.416;12.952;2022-10-22T09:24:41;74.80;;;24.90;;
64375;SDS011;50700;55.416;12.952;2022-10-22T09:27:41;79.00;;;25.90;;
64375;SDS011;50700;55.416;12.952;2022-10-22T09:30:01;77.22;;;24.50;;
64375;SDS011;50700;55.416;12.952;2022-10-22T09:32:27;76.30;;;25.42;;
64375;SDS011;50700;55.416;12.952;2022-10-22T09:34:54;80.70;;;26.05;;
64375;SDS011;50700;55.416;12.952;2022-10-22T09:37:24;74.40;;;24.90;;
64375;SDS011;50700;55.416;12.952;2022-10-22T09:39:51;79.75;;;25.40;;
64375;SDS011;50700;55.416;12.952;2022-10-22T09:42:18;69.90;;;24.83;;
64375;SDS011;50700;55.416;12.952;2022-10-22T09:44:56;69.15;;;23.80;;
64375;SDS011;50700;55.416;12.952;2022-10-22T09:50:03;66.15;;;21.50;;
64375;SDS011;50700;55.416;12.952;2022-10-22T09:52:30;59.33;;;20.67;;
64375;SDS011;50700;55.416;12.952;2022-10-22T09:55:00;64.28;;;22.65;;
64375;SDS011;50700;55.416;12.952;2022-10-22T09:57:27;57.20;;;21.50;;
64375;SDS011;50700;55.416;12.952;2022-10-22T09:59:54;54.50;;;20.58;;
64375;SDS011;50700;55.416;12.952;2022-10-22T10:02:26;61.13;;;22.50;;
64375;SDS011;50700;55.416;12.952;2022-10-22T10:04:53;56.95;;;21.75;;
64375;SDS011;50700;55.416;12.952;2022-10-22T10:07:21;56.58;;;22.75;;
64375;SDS011;50700;55.416;12.952;2022-10-22T10:09:48;57.95;;;21.65;;
64375;SDS011;50700;55.416;12.952;2022-10-22T10:12:31;57.88;;;21.00;;
64375;SDS011;50700;55.416;12.952;2022-10-22T10:17:35;55.43;;;21.63;;
64375;SDS011;50700;55.416;12.952;2022-10-22T10:28:00;43.53;;;19.25;;
64375;SDS011;50700;55.416;12.952;2022-10-22T10:30:28;53.65;;;19.00;;
64375;SDS011;50700;55.416;12.952;2022-10-22T10:33:15;54.53;;;19.58;;
64375;SDS011;50700;55.416;12.952;2022-10-22T10:41:08;55.72;;;20.38;;
64375;SDS011;50700;55.416;12.952;2022-10-22T10:46:19;56.08;;;19.92;;
64375;SDS011;50700;55.416;12.952;2022-10-22T10:48:49;56.40;;;20.08;;
64375;SDS011;50700;55.416;12.952;2022-10-22T10:56:31;60.00;;;20.02;;
64375;SDS011;50700;55.416;12.952;2022-10-22T10:59:04;62.28;;;21.60;;
64375;SDS011;50700;55.416;12.952;2022-10-22T11:06:25;51.08;;;18.77;;
64375;SDS011;50700;55.416;12.952;2022-10-22T11:08:57;57.58;;;20.45;;
64375;SDS011;50700;55.416;12.952;2022-10-22T11:13:54;63.28;;;20.83;;
64375;SDS011;50700;55.416;12.952;2022-10-22T11:21:41;67.65;;;21.73;;
64375;SDS011;50700;55.416;12.952;2022-10-22T11:26:47;56.53;;;19.85;;
64375;SDS011;50700;55.416;12.952;2022-10-22T11:29:18;62.90;;;20.45;;
64375;SDS011;50700;55.416;12.952;2022-10-22T11:31:47;63.30;;;21.33;;
64375;SDS011;50700;55.416;12.952;2022-10-22T11:34:15;61.80;;;20.42;;
64375;SDS011;50700;55.416;12.952;2022-10-22T11:36:43;55.67;;;19.73;;
64375;SDS011;50700;55.416;12.952;2022-10-22T11:41:57;59.30;;;19.75;;
64375;SDS011;50700;55.416;12.952;2022-10-22T11:44:23;68.05;;;21.65;;
64375;SDS011;50700;55.416;12.952;2022-10-22T11:46:54;61.30;;;21.40;;
64375;SDS011;50700;55.416;12.952;2022-10-22T11:49:27;63.80;;;21.83;;
64375;SDS011;50700;55.416;12.952;2022-10-22T11:52:36;57.75;;;20.17;;
64375;SDS011;50700;55.416;12.952;2022-10-22T11:55:26;59.47;;;20.33;;
64375;SDS011;50700;55.416;12.952;2022-10-22T11:57:49;52.90;;;18.85;;
64375;SDS011;50700;55.416;12.952;2022-10-22T12:00:38;48.80;;;17.02;;
64375;SDS011;50700;55.416;12.952;2022-10-22T12:03:15;52.78;;;19.15;;
64375;SDS011;50700;55.416;12.952;2022-10-22T12:05:42;52.45;;;17.00;;
64375;SDS011;50700;55.416;12.952;2022-10-22T12:10:37;53.17;;;16.75;;
64375;SDS011;50700;55.416;12.952;2022-10-22T12:13:25;47.80;;;17.70;;
64375;SDS011;50700;55.416;12.952;2022-10-22T12:15:53;44.85;;;16.02;;
64375;SDS011;50700;55.416;12.952;2022-10-22T12:18:22;51.60;;;17.83;;
64375;SDS011;50700;55.416;12.952;2022-10-22T12:20:50;48.28;;;17.00;;
64375;SDS011;50700;55.416;12.952;2022-10-22T12:23:17;42.35;;;16.50;;
64375;SDS011;50700;55.416;12.952;2022-10-22T12:25:43;46.28;;;16.40;;
64375;SDS011;50700;55.416;12.952;2022-10-22T12:28:10;42.78;;;16.92;;
64375;SDS011;50700;55.416;12.952;2022-10-22T12:30:37;47.20;;;18.05;;
64375;SDS011;50700;55.416;12.952;2022-10-22T12:33:05;41.75;;;14.75;;
64375;SDS011;50700;55.416;12.952;2022-10-22T12:35:32;45.30;;;16.05;;
64375;SDS011;50700;55.416;12.952;2022-10-22T12:38:01;41.10;;;15.38;;
64375;SDS011;50700;55.416;12.952;2022-10-22T12:40:29;42.58;;;15.00;;
64375;SDS011;50700;55.416;12.952;2022-10-22T12:42:57;39.35;;;15.30;;
64375;SDS011;50700;55.416;12.952;2022-10-22T12:45:29;37.65;;;14.73;;
64375;SDS011;50700;55.416;12.952;2022-10-22T12:48:00;38.95;;;15.65;;
64375;SDS011;50700;55.416;12.952;2022-10-22T12:50:31;46.60;;;16.98;;
64375;SDS011;50700;55.416;12.952;2022-10-22T12:53:01;36.55;;;15.25;;
64375;SDS011;50700;55.416;12.952;2022-10-22T12:55:28;40.08;;;13.90;;
64375;SDS011;50700;55.416;12.952;2022-10-22T12:57:56;27.45;;;11.60;;
64375;SDS011;50700;55.416;12.952;2022-10-22T13:00:23;25.08;;;11.07;;
64375;SDS011;50700;55.416;12.952;2022-10-22T13:02:50;24.48;;;10.55;;
64375;SDS011;50700;55.416;12.952;2022-10-22T13:07:46;25.38;;;10.75;;
64375;SDS011;50700;55.416;12.952;2022-10-22T13:10:17;22.83;;;10.25;;
64375;SDS011;50700;55.416;12.952;2022-10-22T13:12:47;27.00;;;11.55;;
64375;SDS011;50700;55.416;12.952;2022-10-22T13:15:18;23.67;;;11.02;;
64375;SDS011;50700;55.416;12.952;2022-10-22T13:17:45;25.92;;;10.48;;
64375;SDS011;50700;55.416;12.952;2022-10-22T13:20:20;26.67;;;10.50;;
64375;SDS011;50700;55.416;12.952;2022-10-22T13:22:54;24.88;;;10.13;;
64375;SDS011;50700;55.416;12.952;2022-10-22T13:25:25;20.27;;;9.15;;
64375;SDS011;50700;55.416;12.952;2022-10-22T13:27:56;21.65;;;9.55;;
64375;SDS011;50700;55.416;12.952;2022-10-22T13:33:02;23.40;;;9.57;;
64375;SDS011;50700;55.416;12.952;2022-10-22T13:35:38;23.20;;;9.55;;
64375;SDS011;50700;55.416;12.952;2022-10-22T13:38:14;22.50;;;8.90;;
64375;SDS011;50700;55.416;12.952;2022-10-22T13:40:42;24.85;;;9.05;;
64375;SDS011;50700;55.416;12.952;2022-10-22T13:43:08;20.95;;;9.05;;
64375;SDS011;50700;55.416;12.952;2022-10-22T13:45:35;20.88;;;9.77;;
64375;SDS011;50700;55.416;12.952;2022-10-22T13:48:01;17.73;;;9.52;;
64375;SDS011;50700;55.416;12.952;2022-10-22T13:50:27;24.40;;;9.77;;
64375;SDS011;50700;55.416;12.952;2022-10-22T13:52:56;24.75;;;10.80;;
64375;SDS011;50700;55.416;12.952;2022-10-22T13:55:24;18.58;;;8.73;;
64375;SDS011;50700;55.416;12.952;2022-10-22T13:58:02;23.08;;;9.50;;
64375;SDS011;50700;55.416;12.952;2022-10-22T14:00:31;22.35;;;9.98;;
64375;SDS011;50700;55.416;12.952;2022-10-22T14:02:57;21.10;;;9.15;;
64375;SDS011;50700;55.416;12.952;2022-10-22T14:05:24;21.50;;;9.25;;
64375;SDS011;50700;55.416;12.952;2022-10-22T14:07:51;18.05;;;9.18;;
64375;SDS011;50700;55.416;12.952;2022-10-22T14:10:18;24.25;;;9.88;;
64375;SDS011;50700;55.416;12.952;2022-10-22T14:12:45;22.27;;;10.05;;
64375;SDS011;50700;55.416;12.952;2022-10-22T14:15:12;19.52;;;9.52;;
64375;SDS011;50700;55.416;12.952;2022-10-22T14:17:39;23.13;;;9.15;;
64375;SDS011;50700;55.416;12.952;2022-10-22T14:20:14;22.73;;;9.23;;
64375;SDS011;50700;55.416;12.952;2022-10-22T14:22:40;19.58;;;9.70;;
64375;SDS011;50700;55.416;12.952;2022-10-22T14:25:08;21.30;;;9.40;;
64375;SDS011;50700;55.416;12.952;2022-10-22T14:27:35;21.17;;;9.63;;
64375;SDS011;50700;55.416;12.952;2022-10-22T14:30:02;19.98;;;9.57;;
64375;SDS011;50700;55.416;12.952;2022-10-22T14:32:29;23.45;;;9.32;;
64375;SDS011;50700;55.416;12.952;2022-10-22T14:34:55;24.08;;;9.98;;
64375;SDS011;50700;55.416;12.952;2022-10-22T14:37:23;20.50;;;9.32;;
64375;SDS011;50700;55.416;12.952;2022-10-22T14:39:50;19.98;;;9.45;;
64375;SDS011;50700;55.416;12.952;2022-10-22T14:42:21;23.70;;;10.38;;
64375;SDS011;50700;55.416;12.952;2022-10-22T14:44:47;24.60;;;10.05;;
64375;SDS011;50700;55.416;12.952;2022-10-22T14:47:13;25.20;;;11.63;;
64375;SDS011;50700;55.416;12.952;2022-10-22T14:49:39;22.45;;;10.82;;
64375;SDS011;50700;55.416;12.952;2022-10-22T14:52:05;24.15;;;10.10;;
64375;SDS011;50700;55.416;12.952;2022-10-22T14:54:32;25.42;;;10.32;;
64375;SDS011;50700;55.416;12.952;2022-10-22T14:56:59;25.52;;;11.13;;
64375;SDS011;50700;55.416;12.952;2022-10-22T14:59:26;33.40;;;12.25;;
64375;SDS011;50700;55.416;12.952;2022-10-22T15:01:52;27.35;;;11.57;;
64375;SDS011;50700;55.416;12.952;2022-10-22T15:04:18;23.27;;;12.90;;
64375;SDS011;50700;55.416;12.952;2022-10-22T15:06:44;25.60;;;11.80;;
64375;SDS011;50700;55.416;12.952;2022-10-22T15:09:11;24.95;;;11.90;;
64375;SDS011;50700;55.416;12.952;2022-10-22T15:11:37;23.42;;;11.55;;
64375;SDS011;50700;55.416;12.952;2022-10-22T15:14:03;21.33;;;11.25;;
64375;SDS011;50700;55.416;12.952;2022-10-22T15:16:29;26.35;;;12.60;;
64375;SDS011;50700;55.416;12.952;2022-10-22T15:18:56;40.42;;;19.52;;
64375;SDS011;50700;55.416;12.952;2022-10-22T15:21:23;31.88;;;16.13;;
64375;SDS011;50700;55.416;12.952;2022-10-22T15:23:50;28.00;;;14.05;;
64375;SDS011;50700;55.416;12.952;2022-10-22T15:26:16;29.60;;;14.65;;
64375;SDS011;50700;55.416;12.952;2022-10-22T15:28:42;32.00;;;15.60;;
64375;SDS011;50700;55.416;12.952;2022-10-22T15:31:11;28.45;;;14.02;;
64375;SDS011;50700;55.416;12.952;2022-10-22T15:33:39;25.45;;;12.80;;
64375;SDS011;50700;55.416;12.952;2022-10-22T15:36:09;26.58;;;12.82;;
64375;SDS011;50700;55.416;12.952;2022-10-22T15:38:36;25.25;;;11.70;;
64375;SDS011;50700;55.416;12.952;2022-10-22T15:41:03;29.25;;;13.15;;
64375;SDS011;50700;55.416;12.952;2022-10-22T15:43:30;25.85;;;12.98;;
64375;SDS011;50700;55.416;12.952;2022-10-22T15:48:35;24.40;;;12.07;;
64375;SDS011;50700;55.416;12.952;2022-10-22T15:51:05;20.95;;;11.32;;
64375;SDS011;50700;55.416;12.952;2022-10-22T15:53:32;29.85;;;12.13;;